createdAt,value
2023-01-11T04:05:45.417Z,69.85
2023-01-11T04:08:12.374Z,67.90
2023-01-11T04:10:39.527Z,67.25
2023-01-11T04:13:06.405Z,67.07
2023-01-11T04:15:34.941Z,66.86
2023-01-11T04:18:05.491Z,66.38
2023-01-11T04:20:36.624Z,66.08
2023-01-11T04:23:04.657Z,65.74
2023-01-11T04:25:31.688Z,65.74
2023-01-11T04:27:58.671Z,65.85
2023-01-11T04:30:25.697Z,66.13
2023-01-11T04:32:52.620Z,66.32
2023-01-11T04:35:19.586Z,66.41
2023-01-11T04:37:46.471Z,66.24
2023-01-11T04:40:13.603Z,66.56
2023-01-11T04:42:40.513Z,66.71
2023-01-11T04:45:07.948Z,66.80
2023-01-11T04:47:34.842Z,66.69
2023-01-11T04:50:01.875Z,66.73
2023-01-11T04:52:28.863Z,66.17
2023-01-11T04:54:55.812Z,65.87
2023-01-11T04:57:22.746Z,66.26
2023-01-11T04:59:49.664Z,66.45
2023-01-11T05:02:16.590Z,66.49
2023-01-11T05:04:43.855Z,66.73
2023-01-11T05:07:10.985Z,66.71
2023-01-11T05:09:38.001Z,66.70
2023-01-11T05:12:05.065Z,66.53
2023-01-11T05:14:32.078Z,66.15
2023-01-11T05:16:59.142Z,65.75
2023-01-11T05:19:26.331Z,65.73
2023-01-11T05:21:53.234Z,65.54
2023-01-11T05:24:20.212Z,65.16
2023-01-11T05:26:48.615Z,64.95
2023-01-11T05:29:21.054Z,64.94
2023-01-11T05:31:48.983Z,65.12
2023-01-11T05:34:16.438Z,65.01
2023-01-11T05:36:43.601Z,64.90
2023-01-11T05:39:14.051Z,64.98
2023-01-11T05:41:41.013Z,65.08
2023-01-11T05:44:31.412Z,64.82
2023-01-11T05:46:58.524Z,64.44
2023-01-11T05:49:28.729Z,64.54
2023-01-11T05:51:55.681Z,64.48
2023-01-11T05:54:22.646Z,64.18
2023-01-11T05:56:49.572Z,64.09
2023-01-11T05:59:16.567Z,64.00
2023-01-11T06:01:43.543Z,63.94
2023-01-11T06:04:10.562Z,63.89
2023-01-11T06:06:37.529Z,63.86
2023-01-11T06:09:04.524Z,64.12
2023-01-11T06:11:31.540Z,63.99
2023-01-11T06:13:58.494Z,63.84
2023-01-11T06:16:25.625Z,63.89
2023-01-11T06:18:52.971Z,64.03
2023-01-11T06:21:20.240Z,63.98
2023-01-11T06:23:48.579Z,63.92
2023-01-11T06:26:16.733Z,63.92
2023-01-11T06:28:44.793Z,64.18
2023-01-11T06:31:11.928Z,64.23
2023-01-11T06:33:39.035Z,64.16
2023-01-11T06:36:07.941Z,63.94
2023-01-11T06:38:35.293Z,63.99
2023-01-11T06:41:03.044Z,63.99
2023-01-11T06:43:30.500Z,63.94
2023-01-11T06:45:57.877Z,63.91
2023-01-11T06:48:24.920Z,63.71
2023-01-11T06:50:53.840Z,63.50
2023-01-11T06:53:21.156Z,63.22
2023-01-11T06:55:52.479Z,62.94
2023-01-11T06:58:20.052Z,62.96
2023-01-11T07:00:47.190Z,62.96
2023-01-11T07:03:14.208Z,63.12
2023-01-11T07:05:43.379Z,63.27
2023-01-11T07:08:10.349Z,63.52
2023-01-11T07:10:37.604Z,63.77
2023-01-11T07:13:04.541Z,63.73
2023-01-11T07:15:31.527Z,63.29
2023-01-11T07:17:59.369Z,63.43
2023-01-11T07:20:26.536Z,63.58
2023-01-11T07:22:57.310Z,63.43
2023-01-11T07:25:24.817Z,63.30
2023-01-11T07:27:59.440Z,63.12
2023-01-11T07:30:27.893Z,63.23
2023-01-11T07:32:55.301Z,63.02
2023-01-11T07:35:22.248Z,63.04
2023-01-11T07:37:49.325Z,62.84
2023-01-11T07:40:18.115Z,62.65
2023-01-11T07:43:11.591Z,62.49
2023-01-11T07:45:45.711Z,62.42
2023-01-11T07:48:13.472Z,62.72
2023-01-11T07:50:45.260Z,63.06
2023-01-11T09:34:15.428Z,64.56
2023-01-11T09:36:44.488Z,62.45
2023-01-11T09:39:14.792Z,62.50
2023-01-11T09:41:49.525Z,62.35
2023-01-11T11:50:45.479Z,63.98
2023-01-11T11:53:35.248Z,62.59
2023-01-11T11:56:21.522Z,62.27
2023-01-11T11:58:48.486Z,61.72
2023-01-11T12:01:33.092Z,61.31
2023-01-11T12:04:10.028Z,61.21
2023-01-11T12:06:37.058Z,61.49
2023-01-11T12:09:04.109Z,61.49
2023-01-11T12:11:35.604Z,61.78
2023-01-11T12:14:11.699Z,61.84
2023-01-11T12:16:40.372Z,61.96
2023-01-11T12:19:29.420Z,61.97
2023-01-11T12:22:23.504Z,61.81
2023-01-11T12:25:21.776Z,61.94
2023-01-11T12:28:07.672Z,62.31
2023-01-11T12:30:43.109Z,62.66
2023-01-11T12:33:38.146Z,62.93
2023-01-11T12:36:08.806Z,63.09
2023-01-11T12:38:42.398Z,63.25
2023-01-11T12:41:09.665Z,63.83
2023-01-11T12:43:51.944Z,63.56
2023-01-11T12:58:05.411Z,62.20
2023-01-11T13:00:43.236Z,61.46
2023-01-11T13:03:34.433Z,61.59
2023-01-11T13:06:33.101Z,62.00
2023-01-11T13:09:08.508Z,62.32
2023-01-11T13:11:43.727Z,62.70
2023-01-11T13:14:27.452Z,62.89
2023-01-11T13:17:24.145Z,62.80
2023-01-11T13:20:00.609Z,62.60
2023-01-11T13:22:33.688Z,62.74
2023-01-11T13:25:01.742Z,62.81
2023-01-11T13:27:29.251Z,63.06
2023-01-11T13:29:56.359Z,62.71
2023-01-11T13:32:24.944Z,62.64
2023-01-11T13:34:57.707Z,62.61
2023-01-11T13:37:35.623Z,62.46
2023-01-11T13:40:24.595Z,62.32
2023-01-11T13:42:54.825Z,62.10
2023-01-11T13:45:24.888Z,61.78
2023-01-11T13:47:55.778Z,61.85
2023-01-11T13:50:33.646Z,61.53
2023-01-11T13:53:18.997Z,61.77
2023-01-11T13:55:55.253Z,62.20
2023-01-11T13:58:25.784Z,62.52
2023-01-11T14:00:54.146Z,62.70
2023-01-11T14:03:21.198Z,62.94
2023-01-11T14:06:10.343Z,63.12
2023-01-11T14:09:00.925Z,63.26
2023-01-11T14:11:40.899Z,63.52
2023-01-11T14:14:29.434Z,63.48
2023-01-11T14:17:18.377Z,63.72
2023-01-11T14:19:54.472Z,63.75
2023-01-11T14:22:59.883Z,63.84
2023-01-11T14:25:29.836Z,64.08
2023-01-11T14:28:29.364Z,64.12
2023-01-11T14:30:59.172Z,64.14
2023-01-11T14:33:36.273Z,64.25
2023-01-11T14:36:29.278Z,64.41
2023-01-11T14:39:24.849Z,64.35
2023-01-11T14:42:04.204Z,64.39
2023-01-11T14:44:34.111Z,64.54
2023-01-11T14:47:30.659Z,64.75
2023-01-11T14:50:17.924Z,65.05
2023-01-11T14:52:44.890Z,65.21
2023-01-11T14:55:23.706Z,65.36
2023-01-11T14:57:57.047Z,65.57
2023-01-11T15:00:24.197Z,65.65
2023-01-11T15:03:00.377Z,65.85
2023-01-11T15:05:33.760Z,66.04
2023-01-11T15:08:25.398Z,66.13
2023-01-11T15:11:18.982Z,66.20
2023-01-11T15:13:55.149Z,66.13
2023-01-11T15:16:47.608Z,66.13
2023-01-11T15:19:29.768Z,66.06
2023-01-11T15:21:57.118Z,65.98
2023-01-11T15:24:29.094Z,65.90
2023-01-11T15:26:56.894Z,65.76
2023-01-11T15:29:27.488Z,65.75
2023-01-11T15:31:54.483Z,65.92
2023-01-11T15:34:39.950Z,66.10
2023-01-11T15:37:36.165Z,66.14
2023-01-11T15:40:09.258Z,66.21
2023-01-11T15:43:18.462Z,66.23
2023-01-11T15:46:16.571Z,66.15
2023-01-11T15:48:52.617Z,66.15
2023-01-11T15:51:50.964Z,66.19
2023-01-11T15:54:32.557Z,66.39
2023-01-11T15:57:24.712Z,66.57
2023-01-11T16:00:30.179Z,66.55
2023-01-11T16:03:28.571Z,66.42
2023-01-11T19:33:12.141Z,72.75
2023-01-11T19:35:41.604Z,71.68
2023-01-11T19:38:08.519Z,71.49
2023-01-11T19:40:35.880Z,71.25
2023-01-11T19:43:03.218Z,71.12
2023-01-11T19:45:30.474Z,71.08
2023-01-11T19:47:58.069Z,70.90
2023-01-11T19:50:25.036Z,70.81
2023-01-11T19:52:51.755Z,70.72
2023-01-11T19:55:18.686Z,70.74
2023-01-11T19:57:45.687Z,70.87
2023-01-11T20:00:14.377Z,70.82
2023-01-11T20:02:41.969Z,71.07
2023-01-11T20:05:09.234Z,71.40
2023-01-11T20:07:36.449Z,71.63
2023-01-11T20:10:03.457Z,71.81
2023-01-11T20:12:30.692Z,72.15
2023-01-11T20:15:00.620Z,72.12
2023-01-11T20:17:28.335Z,72.07
2023-01-11T20:19:55.402Z,71.94
2023-01-11T20:22:23.391Z,71.89
2023-01-11T20:24:50.761Z,71.78
2023-01-11T20:27:17.694Z,71.58
2023-01-11T20:29:45.268Z,71.25
2023-01-11T20:32:34.878Z,71.13
2023-01-11T20:35:00.473Z,71.06
2023-01-11T20:37:27.974Z,70.87
2023-01-11T20:39:54.805Z,70.72
2023-01-11T20:42:21.795Z,70.55
2023-01-11T20:44:48.611Z,70.36
2023-01-11T20:47:15.721Z,70.23
2023-01-11T20:49:42.831Z,70.33
2023-01-11T20:52:09.616Z,70.40
